Latest Weather Observations for Tewantin

IDQ60901

Issued at 6:41 pm EST Sunday 24 July 2016 (issued every 10 minutes, with the page automatically refreshed every 10 minutes)

About weather observations | Map of Brisbane area stations | Latest observations for Brisbane area | Other Formats
Station Details ID: 040908 Name: TEWANTIN RSL PARK Lat: -26.39 Lon: 153.04 Height: 6.4 m
Data from the previous 72 hours. | See also: Recent months at Tewantin
Date/Time
EST
Temp
°C
App
Temp
°C
Dew
Point
°C
Rel
Hum
%
Delta-T
°C
Wind Press
QNH
hPa
Press
MSL
hPa
Rain since
9am
mm
Dir  Spd
km/h
Gust
km/h
Spd
kts
Gust
kts
24/06:30pm 16.3 15.2 10.6 69 3.0 SW 7 9 4 5 1014.6 1014.6 0.0
24/06:00pm 17.2 17.5 11.0 67 3.3 CALM 0 0 0 0 1014.1 1014.1 0.0
24/05:30pm 17.7 17.4 8.8 56 4.6 CALM 0 0 0 0 1013.8 1013.8 0.0
24/05:00pm 18.4 16.8 8.9 54 4.9 ENE 7 9 4 5 1013.6 1013.6 0.0
24/04:30pm 19.0 16.9 8.4 50 5.5 ENE 9 13 5 7 1013.5 1013.5 0.0
24/04:00pm 19.3 16.7 7.7 47 5.9 ENE 11 17 6 9 1013.2 1013.2 0.0
24/03:30pm 19.9 17.6 7.3 44 6.4 NNE 9 13 5 7 1013.3 1013.3 0.0
24/03:00pm 20.3 18.6 8.3 46 6.2 NNE 7 11 4 6 1013.3 1013.3 0.0
24/02:30pm 20.8 18.7 8.1 44 6.6 NNE 9 13 5 7 1013.6 1013.6 0.0
24/02:00pm 21.3 19.4 8.9 45 6.6 NNE 9 13 5 7 1014.0 1014.0 0.0
24/01:30pm 20.8 18.7 8.1 44 6.6 NE 9 17 5 9 1014.5 1014.5 0.0
24/01:00pm 21.3 19.2 8.2 43 6.8 ENE 9 17 5 9 1014.7 1014.7 0.0
24/12:30pm 21.2 18.8 7.1 40 7.2 NE 9 13 5 7 1015.0 1015.0 0.0
24/12:00pm 22.0 20.4 6.3 36 7.9 N 4 6 2 3 1015.5 1015.5 0.0
24/11:30am 21.3 19.8 4.8 34 8.1 N 2 6 1 3 1016.0 1016.0 0.0
24/11:00am 20.6 18.3 5.0 36 7.6 S 6 9 3 5 1016.5 1016.5 0.0
24/10:30am 20.0 18.2 7.1 43 6.6 SSW 6 7 3 4 1016.9 1016.9 0.0
24/10:00am 19.4 17.8 8.1 48 5.8 SSW 6 9 3 5 1017.0 1017.0 0.0
24/09:30am 18.1 16.0 8.1 52 5.1 S 9 13 5 7 1017.2 1017.2 0.0
24/09:00am 17.4 15.9 8.3 55 4.6 SSW 6 11 3 6 1017.4 1017.4 0.0
24/08:30am 16.5 15.0 8.5 59 4.1 SSW 6 9 3 5 1017.4 1017.4 0.0
24/08:00am 15.2 14.2 7.5 60 3.8 S 2 7 1 4 1017.0 1017.0 0.0
24/07:30am 13.1 12.6 10.6 85 1.3 SSW 4 6 2 3 1016.9 1016.9 0.0
24/07:00am 12.2 12.3 10.3 88 1.0 CALM 0 0 0 0 1016.2 1016.2 0.0
24/06:30am 11.9 10.9 10.3 90 0.8 SSW 6 7 3 4 1015.7 1015.7 0.0
24/06:00am 12.1 12.1 9.7 85 1.2 CALM 0 0 0 0 1015.1 1015.1 0.0
24/05:30am 12.2 11.8 8.3 77 1.9 CALM 0 0 0 0 1014.9 1014.9 0.0
24/05:00am 12.3 11.7 9.1 81 1.6 NNW 2 6 1 3 1014.3 1014.3 0.0
24/04:30am 12.5 11.2 9.3 81 1.6 NNW 6 9 3 5 1014.1 1014.1 0.0
24/04:00am 13.2 13.4 10.4 83 1.5 CALM 0 0 0 0 1013.8 1013.8 0.0
24/03:30am 13.7 13.2 9.2 74 2.3 W 2 6 1 3 1013.8 1013.8 0.0
24/03:00am 14.1 14.5 11.1 82 1.6 CALM 0 0 0 0 1013.8 1013.8 0.0
24/02:30am 15.3 15.1 9.2 67 3.1 CALM 0 4 0 2 1013.8 1013.8 0.0
24/02:00am 16.1 14.8 9.1 63 3.6 SW 6 9 3 5 1013.5 1013.5 0.0
24/01:30am 15.6 14.7 10.8 73 2.5 SSW 6 9 3 5 1013.5 1013.5 0.0
24/01:00am 16.4 16.6 13.1 81 1.8 SW 4 7 2 4 1013.6 1013.6 0.0
24/12:30am 16.3 17.6 14.1 87 1.2 CALM 0 0 0 0 1013.6 1013.6 0.0
24/12:00am 17.2 18.5 14.1 82 1.8 CALM 0 0 0 0 1013.4 1013.4 0.0
 
Date/Time
EST
Temp
°C
App
Temp
°C
Dew
Point
°C
Rel
Hum
%
Delta-T
°C
Wind Press
QNH
hPa
Press
MSL
hPa
Rain since
9am
mm
Dir  Spd
km/h
Gust
km/h
Spd
kts
Gust
kts
23/11:30pm 17.7 18.2 12.8 73 2.7 SW 2 6 1 3 1013.1 1013.1 0.0
23/11:00pm 18.2 18.9 13.3 73 2.8 WSW 2 6 1 3 1013.0 1013.0 0.0
23/10:30pm 18.7 20.2 15.8 83 1.7 SSW 2 9 1 5 1012.8 1012.8 0.0
23/10:00pm 19.5 20.4 16.2 81 2.0 NW 6 7 3 4 1012.8 1012.8 0.0
23/09:30pm 19.3 20.9 15.0 76 2.5 CALM 0 0 0 0 1012.3 1012.3 0.0
23/09:00pm 19.6 20.1 14.0 70 3.2 NNW 4 9 2 5 1011.8 1011.8 0.0
23/08:30pm 20.7 21.8 13.6 64 4.1 CALM 0 6 0 3 1011.6 1011.6 0.0
23/08:00pm 22.3 22.3 13.6 58 5.0 SW 6 13 3 7 1011.5 1011.5 0.0
23/07:30pm 22.2 23.1 14.1 60 4.7 WSW 2 9 1 5 1011.3 1011.3 0.0
23/07:00pm 22.2 23.1 14.1 60 4.7 W 2 7 1 4 1010.9 1010.9 0.0
23/06:30pm 23.2 24.6 15.3 61 4.7 SW 2 7 1 4 1010.5 1010.5 0.0
23/06:00pm 24.5 25.5 14.3 53 6.0 WSW 2 7 1 4 1010.0 1010.0 0.0
23/05:30pm 25.4 26.4 14.2 50 6.6 WSW 2 7 1 4 1009.6 1009.6 0.0
23/05:00pm 27.1 27.4 14.5 46 7.6 SW 6 11 3 6 1009.4 1009.4 0.0
23/04:30pm 28.1 27.7 14.0 42 8.4 WSW 9 17 5 9 1008.9 1008.9 0.0
23/04:00pm 28.8 27.7 14.2 40 8.8 SW 13 20 7 11 1008.5 1008.5 0.0
23/03:30pm 29.4 28.9 14.8 41 8.9 WSW 11 20 6 11 1008.2 1008.2 0.0
23/03:00pm 29.5 28.7 14.1 39 9.3 W 11 19 6 10 1008.0 1008.0 0.0
23/02:30pm 30.1 30.0 15.0 40 9.2 W 9 22 5 12 1008.1 1008.1 0.0
23/02:00pm 29.9 29.4 16.0 43 8.6 WNW 13 24 7 13 1008.0 1008.0 0.0
23/01:30pm 29.4 29.4 16.2 44 8.2 NW 11 19 6 10 1008.1 1008.1 0.0
23/01:00pm 28.9 29.7 18.1 52 6.9 WNW 11 19 6 10 1008.5 1008.5 0.0
23/12:30pm 27.8 27.8 17.3 52 6.6 NW 13 24 7 13 1008.8 1008.8 0.0
23/12:00pm 28.0 28.4 18.1 55 6.3 NW 13 22 7 12 1009.3 1009.3 0.0
23/11:30am 27.2 28.8 18.2 58 5.7 NNW 7 19 4 10 1010.0 1010.0 0.0
23/11:00am 25.4 26.1 18.8 67 4.2 N 13 22 7 12 1010.7 1010.7 0.0
23/10:30am 25.0 26.3 18.4 66 4.2 N 9 17 5 9 1011.2 1011.2 0.0
23/10:00am 23.3 24.2 18.4 74 3.1 N 11 17 6 9 1011.7 1011.7 0.0
23/09:30am 21.9 22.8 18.3 80 2.2 N 11 17 6 9 1012.3 1012.3 0.0
23/09:00am 20.3 21.0 17.9 86 1.5 N 11 17 6 9 1012.5 1012.5 0.0
23/08:30am 19.1 18.9 17.6 91 0.9 N 15 20 8 11 1012.5 1012.5 0.0
23/08:00am 18.3 18.8 17.5 95 0.5 NNW 11 15 6 8 1012.4 1012.4 0.0
23/07:30am 18.2 19.0 17.4 95 0.5 NW 9 15 5 8 1012.4 1012.4 0.0
23/07:00am 18.1 18.6 17.5 96 0.4 NNW 11 19 6 10 1012.2 1012.2 0.0
23/06:30am 17.9 18.4 17.4 97 0.3 NNW 11 17 6 9 1012.0 1012.0 0.0
23/06:00am 17.8 18.6 17.3 97 0.3 NW 9 15 5 8 1011.9 1011.9 0.0
23/05:30am 17.7 18.5 17.4 98 0.2 NW 9 15 5 8 1011.7 1011.7 0.0
23/05:00am 17.5 18.7 17.3 99 0.1 NW 7 13 4 7 1011.5 1011.5 0.0
23/04:30am 17.6 18.4 17.4 99 0.1 NNW 9 15 5 8 1011.4 1011.4 0.0
23/04:00am 17.4 17.8 17.2 99 0.1 NW 11 17 6 9 1011.3 1011.3 0.0
23/03:30am 16.9 17.5 16.7 99 0.1 NW 9 13 5 7 1011.6 1011.6 0.0
23/03:00am 17.2 17.9 17.0 99 0.1 NW 9 13 5 7 1011.7 1011.7 0.0
23/02:30am 17.6 18.3 17.1 97 0.3 NW 9 15 5 8 1011.5 1011.5 0.0
23/02:00am 18.0 18.4 17.2 95 0.5 NW 11 17 6 9 1011.6 1011.6 0.0
23/01:30am 18.0 18.3 17.0 94 0.6 NW 11 17 6 9 1011.8 1011.8 0.0
23/01:00am 18.0 18.7 17.0 94 0.6 NW 9 15 5 8 1012.0 1012.0 0.0
23/12:30am 18.5 18.8 17.0 91 0.9 NNW 11 15 6 8 1012.4 1012.4 0.0
23/12:00am 18.7 19.4 17.0 90 1.0 NNW 9 17 5 9 1012.5 1012.5 0.0
 
Date/Time
EST
Temp
°C
App
Temp
°C
Dew
Point
°C
Rel
Hum
%
Delta-T
°C
Wind Press
QNH
hPa
Press
MSL
hPa
Rain since
9am
mm
Dir  Spd
km/h
Gust
km/h
Spd
kts
Gust
kts
22/11:30pm 18.7 19.7 16.9 89 1.1 NNW 7 13 4 7 1012.6 1012.6 0.0
22/11:00pm 19.1 19.8 17.1 88 1.2 N 9 11 5 6 1012.7 1012.7 0.0
22/10:30pm 19.3 20.1 17.3 88 1.2 N 9 13 5 7 1012.9 1012.9 0.0
22/10:00pm 19.6 20.4 17.2 86 1.5 N 9 13 5 7 1013.1 1013.1 0.0
22/09:30pm 19.9 20.2 17.1 84 1.7 N 11 13 6 7 1013.2 1013.2 0.0
22/09:00pm 20.0 19.9 17.0 83 1.8 N 13 17 7 9 1013.2 1013.2 0.0
22/08:30pm 20.1 20.6 17.5 85 1.6 NNW 11 19 6 10 1013.1 1013.1 0.0
22/08:00pm 20.3 21.4 17.9 86 1.5 NNW 9 13 5 7 1013.2 1013.2 0.0
22/07:30pm 20.7 21.4 17.9 84 1.7 NNW 11 17 6 9 1013.1 1013.1 0.0
22/07:00pm 21.2 21.5 17.8 81 2.1 NNW 13 19 7 10 1012.8 1012.8 0.0
22/06:30pm 21.7 22.0 17.9 79 2.4 NNW 13 20 7 11 1012.5 1012.5 0.0
22/06:00pm 22.3 21.9 18.1 77 2.6 N 17 20 9 11 1012.2 1012.2 0.0
22/05:30pm 23.0 23.1 18.3 75 2.9 N 15 20 8 11 1011.9 1011.9 0.0
22/05:00pm 22.9 23.7 19.1 79 2.4 NNE 13 15 7 8 1011.6 1011.6 0.0
22/04:30pm 23.4 24.9 19.8 80 2.3 NNE 11 15 6 8 1011.4 1011.4 0.0
22/04:00pm 23.2 24.4 19.8 81 2.2 NNE 13 20 7 11 1011.3 1011.3 0.0
22/03:30pm 23.1 24.1 19.5 80 2.3 NNE 13 17 7 9 1011.4 1011.4 0.0
22/03:00pm 23.6 24.0 18.9 75 3.0 NNE 15 20 8 11 1011.7 1011.7 0.0
22/02:30pm 24.0 24.0 18.9 73 3.2 NNE 17 22 9 12 1011.9 1011.9 0.0
22/02:00pm 25.1 26.6 19.0 69 3.9 NE 9 15 5 8 1012.2 1012.2 0.0
22/01:30pm 25.5 26.1 18.7 66 4.3 NNE 13 20 7 11 1012.4 1012.4 0.0
22/01:00pm 25.8 27.1 19.2 67 4.2 NE 11 17 6 9 1012.9 1012.9 0.0
22/12:30pm 26.2 27.3 18.1 61 5.1 NNW 9 13 5 7 1013.5 1013.5 0.0
22/12:00pm 26.5 27.5 17.8 58 5.5 NW 9 13 5 7 1014.2 1014.2 0.0
22/11:30am 26.1 27.0 17.5 59 5.4 NW 9 17 5 9 1014.9 1014.9 0.0
22/11:00am 24.9 26.0 18.1 66 4.3 NNW 9 15 5 8 1015.5 1015.5 0.0
22/10:30am 24.0 25.0 17.7 68 3.9 NNW 9 17 5 9 1016.0 1016.0 0.0
22/10:00am 22.2 22.5 17.8 76 2.7 N 13 15 7 8 1016.4 1016.4 0.0
22/09:30am 20.9 22.1 17.3 80 2.2 NW 7 11 4 6 1016.7 1016.7 0.0
22/09:00am 20.4 21.3 17.6 84 1.7 NNW 9 15 5 8 1016.8 1016.8 0.0
22/08:30am 19.7 20.1 16.2 80 2.1 NNW 9 15 5 8 1016.6 1016.6 0.0
22/08:00am 19.5 20.9 17.3 87 1.3 NW 6 9 3 5 1016.6 1016.6 0.0
22/07:30am 17.1 19.5 16.9 99 0.1 CALM 0 6 0 3 1016.4 1016.4 0.0
22/07:00am 15.7 17.5 15.5 99 0.1 CALM 0 0 0 0 1016.2 1016.2 0.0
22/06:30am 15.8 17.6 15.6 99 0.1 CALM 0 0 0 0 1016.0 1016.0 0.0
22/06:00am 15.7 16.8 15.5 99 0.1 N 4 7 2 4 1015.8 1015.8 0.0
22/05:30am 15.9 16.6 15.6 98 0.2 NW 6 7 3 4 1015.6 1015.6 0.0
22/05:00am 16.3 18.2 15.7 96 0.4 CALM 0 4 0 2 1015.6 1015.6 0.0
22/04:30am 16.5 17.0 15.5 94 0.6 NW 7 11 4 6 1015.6 1015.6 0.0
22/04:00am 17.0 16.8 15.7 92 0.8 NW 11 15 6 8 1015.7 1015.7 0.0
22/03:30am 17.5 17.4 16.0 91 0.9 NW 11 17 6 9 1015.8 1015.8 0.0
22/03:00am 17.0 17.3 16.0 94 0.6 NW 9 13 5 7 1016.2 1016.2 0.0
22/02:30am 16.9 17.6 16.1 95 0.5 NW 7 13 4 7 1016.3 1016.3 0.0
22/02:00am 17.0 17.3 15.9 93 0.6 NW 9 11 5 6 1016.5 1016.5 0.0
22/01:30am 17.5 17.8 16.0 91 0.9 NW 9 11 5 6 1016.7 1016.7 0.0
22/01:00am 17.7 18.6 16.0 90 1.0 NNW 6 9 3 5 1016.8 1016.8 0.0
22/12:30am 17.9 18.8 16.1 89 1.1 NNW 6 11 3 6 1016.8 1016.8 0.0
22/12:00am 17.8 18.5 16.0 89 1.1 NW 7 11 4 6 1016.7 1016.7 0.0
 
Date/Time
EST
Temp
°C
App
Temp
°C
Dew
Point
°C
Rel
Hum
%
Delta-T
°C
Wind Press
QNH
hPa
Press
MSL
hPa
Rain since
9am
mm
Dir  Spd
km/h
Gust
km/h
Spd
kts
Gust
kts
21/11:30pm 17.8 18.5 16.1 90 1.0 NNW 7 9 4 5 1016.8 1016.8 0.0
21/11:00pm 18.1 18.8 16.1 88 1.2 NW 7 13 4 7 1016.7 1016.7 0.0
21/10:30pm 18.6 19.0 16.4 87 1.3 NNW 9 13 5 7 1016.9 1016.9 0.0
21/10:00pm 18.9 19.3 16.3 85 1.6 NNW 9 17 5 9 1017.1 1017.1 0.0
21/09:30pm 19.0 19.9 16.6 86 1.4 NNW 7 13 4 7 1017.1 1017.1 0.0
21/09:00pm 19.2 20.2 16.8 86 1.4 NNW 7 11 4 6 1017.1 1017.1 0.0
21/08:30pm 19.8 20.5 17.0 84 1.7 N 9 13 5 7 1016.9 1016.9 0.0
21/08:00pm 20.2 20.9 17.0 82 1.9 NNW 9 19 5 10 1016.8 1016.8 0.0
21/07:30pm 20.4 21.2 17.4 83 1.8 NNW 9 17 5 9 1016.8 1016.8 0.0
21/07:00pm 20.5 22.0 18.1 86 1.5 NNW 7 11 4 6 1016.5 1016.5 0.0

Latest Capital City Observations: Canberra | Sydney | Melbourne | Brisbane | Adelaide | Perth | Hobart | Darwin

Other Formats:

Comma delimited format used in spreadsheet applications
http://www.bom.gov.au/fwo/IDQ60901/IDQ60901.94570.axf

JavaScript Object Notation format (JSON) in row-major order
http://www.bom.gov.au/fwo/IDQ60901/IDQ60901.94570.json